Krasnotur'yinsk, Russia
Current Conditions -  °F | °C
As of 5:30 AM on Tuesday 25 Nov 2014 (Local Time) from USPP Reporting Station
Blowing Snow Blowing Snow  
Wind Chill: -3°   Ceiling: 5900
Heat Index: 14°   Visibility: 6mi
Dew Point:   Wind: 18mph
Humidity: 62%   Direction: 240°WSW
Pressure: 30.39"   Gusts: NA
Location:  59.46°N, 60.11°E
Report Text: USPP 250030Z 24008MPS 9999 DRSN OVC059 M10/M16 Q1029 21090060NOSIG RMK QFE761/1015
Loading
Personal Weather Stations






























Interactive Weather Map New forecast layout! Learn more

10-Day Weather Forecast

Advertisements
Track Severe Weather on mobile